Chestnut Grove, Alabama
Current Conditions -  °F | °C
As of 7:56 AM on Thursday 23 Oct 2014 (Local Time) from KSXS Reporting Station
Clear Clear  
Wind Chill: 51°   Ceiling: Unl
Heat Index: 51°   Visibility: 10mi
Dew Point: 45°   Wind: 5mph
Humidity: 81%   Direction: 360°N
Pressure: 30.14"   Gusts: NA
Location:  31.5584°N, 86.0569°W
Report Text: KSXS 231256Z AUTO 36004KT 10SM CLR 10/07 A3014 RMK AO2 SLP208 T01030071
Loading
Personal Weather Stations






























Interactive Weather Map
Tropical Storm Tracking
New forecast layout! Learn more

10-Day Weather Forecast

Advertisements
Track Severe Weather on mobile